sensor_id;sensor_type;location;lat;lon;timestamp;temperature;humidity
74359;DHT22;62792;46.236;6.040;2023-09-07T00:00:01;27.80;61.90
74359;DHT22;62792;46.236;6.040;2023-09-07T00:05:07;27.90;61.90
74359;DHT22;62792;46.236;6.040;2023-09-07T00:10:12;27.90;61.80
74359;DHT22;62792;46.236;6.040;2023-09-07T00:15:15;27.90;61.80
74359;DHT22;62792;46.236;6.040;2023-09-07T00:20:20;27.90;62.00
74359;DHT22;62792;46.236;6.040;2023-09-07T00:25:24;27.80;61.90
74359;DHT22;62792;46.236;6.040;2023-09-07T00:30:27;27.90;61.80
74359;DHT22;62792;46.236;6.040;2023-09-07T00:35:30;27.90;61.80
74359;DHT22;62792;46.236;6.040;2023-09-07T00:40:34;27.80;61.90
74359;DHT22;62792;46.236;6.040;2023-09-07T00:45:38;27.80;61.90
74359;DHT22;62792;46.236;6.040;2023-09-07T00:50:41;27.80;61.70
74359;DHT22;62792;46.236;6.040;2023-09-07T00:55:46;27.80;61.70
74359;DHT22;62792;46.236;6.040;2023-09-07T01:00:49;27.80;61.70
74359;DHT22;62792;46.236;6.040;2023-09-07T01:05:56;27.80;61.60
74359;DHT22;62792;46.236;6.040;2023-09-07T01:11:02;27.80;61.90
74359;DHT22;62792;46.236;6.040;2023-09-07T01:16:15;27.80;61.80
74359;DHT22;62792;46.236;6.040;2023-09-07T01:21:18;27.80;61.50
74359;DHT22;62792;46.236;6.040;2023-09-07T01:26:23;27.80;61.70
74359;DHT22;62792;46.236;6.040;2023-09-07T01:31:25;27.80;61.60
74359;DHT22;62792;46.236;6.040;2023-09-07T01:36:29;27.70;61.60
74359;DHT22;62792;46.236;6.040;2023-09-07T01:41:33;27.70;61.70
74359;DHT22;62792;46.236;6.040;2023-09-07T01:46:36;27.70;61.70
74359;DHT22;62792;46.236;6.040;2023-09-07T01:51:39;27.80;61.60
74359;DHT22;62792;46.236;6.040;2023-09-07T01:56:43;27.80;61.50
74359;DHT22;62792;46.236;6.040;2023-09-07T02:01:46;27.80;61.40
74359;DHT22;62792;46.236;6.040;2023-09-07T02:06:49;27.80;61.40
74359;DHT22;62792;46.236;6.040;2023-09-07T02:11:53;27.70;61.60
74359;DHT22;62792;46.236;6.040;2023-09-07T02:16:56;27.70;61.50
74359;DHT22;62792;46.236;6.040;2023-09-07T02:21:59;27.70;61.50
74359;DHT22;62792;46.236;6.040;2023-09-07T02:27:04;27.70;61.60
74359;DHT22;62792;46.236;6.040;2023-09-07T02:32:07;27.60;61.40
74359;DHT22;62792;46.236;6.040;2023-09-07T02:37:11;27.70;61.40
74359;DHT22;62792;46.236;6.040;2023-09-07T02:42:17;27.70;61.40
74359;DHT22;62792;46.236;6.040;2023-09-07T02:47:20;27.70;61.30
74359;DHT22;62792;46.236;6.040;2023-09-07T02:52:24;27.60;61.40
74359;DHT22;62792;46.236;6.040;2023-09-07T02:57:28;27.60;61.30
74359;DHT22;62792;46.236;6.040;2023-09-07T03:02:31;27.70;61.30
74359;DHT22;62792;46.236;6.040;2023-09-07T03:07:34;27.60;61.30
74359;DHT22;62792;46.236;6.040;2023-09-07T03:12:38;27.60;61.00
74359;DHT22;62792;46.236;6.040;2023-09-07T03:17:41;27.60;61.20
74359;DHT22;62792;46.236;6.040;2023-09-07T03:22:44;27.60;61.20
74359;DHT22;62792;46.236;6.040;2023-09-07T03:27:49;27.60;61.30
74359;DHT22;62792;46.236;6.040;2023-09-07T03:32:52;27.50;61.10
74359;DHT22;62792;46.236;6.040;2023-09-07T03:37:55;27.60;61.00
74359;DHT22;62792;46.236;6.040;2023-09-07T03:42:59;27.60;61.20
74359;DHT22;62792;46.236;6.040;2023-09-07T03:48:02;27.60;61.00
74359;DHT22;62792;46.236;6.040;2023-09-07T03:53:06;27.60;61.20
74359;DHT22;62792;46.236;6.040;2023-09-07T03:58:11;27.50;61.00
74359;DHT22;62792;46.236;6.040;2023-09-07T04:03:14;27.60;61.00
74359;DHT22;62792;46.236;6.040;2023-09-07T04:08:17;27.60;61.10
74359;DHT22;62792;46.236;6.040;2023-09-07T04:13:21;27.50;61.00
74359;DHT22;62792;46.236;6.040;2023-09-07T04:18:24;27.50;60.70
74359;DHT22;62792;46.236;6.040;2023-09-07T04:23:27;27.60;60.90
74359;DHT22;62792;46.236;6.040;2023-09-07T04:28:31;27.50;61.00
74359;DHT22;62792;46.236;6.040;2023-09-07T04:33:34;27.50;60.80
74359;DHT22;62792;46.236;6.040;2023-09-07T04:38:38;27.50;60.80
74359;DHT22;62792;46.236;6.040;2023-09-07T04:43:42;27.50;60.90
74359;DHT22;62792;46.236;6.040;2023-09-07T04:48:45;27.50;60.60
74359;DHT22;62792;46.236;6.040;2023-09-07T04:53:48;27.50;60.60
74359;DHT22;62792;46.236;6.040;2023-09-07T04:58:55;27.50;60.70
74359;DHT22;62792;46.236;6.040;2023-09-07T05:03:59;27.40;60.30
74359;DHT22;62792;46.236;6.040;2023-09-07T05:09:06;27.50;60.50
74359;DHT22;62792;46.236;6.040;2023-09-07T05:14:11;27.50;60.60
74359;DHT22;62792;46.236;6.040;2023-09-07T05:19:14;27.50;60.50
74359;DHT22;62792;46.236;6.040;2023-09-07T05:24:17;27.40;60.40
74359;DHT22;62792;46.236;6.040;2023-09-07T05:29:21;27.50;60.30
74359;DHT22;62792;46.236;6.040;2023-09-07T05:34:24;27.50;60.60
74359;DHT22;62792;46.236;6.040;2023-09-07T05:39:27;27.40;60.30
74359;DHT22;62792;46.236;6.040;2023-09-07T05:44:31;27.40;60.40
74359;DHT22;62792;46.236;6.040;2023-09-07T05:49:34;27.40;60.00
74359;DHT22;62792;46.236;6.040;2023-09-07T05:54:37;27.40;60.10
74359;DHT22;62792;46.236;6.040;2023-09-07T05:59:41;27.40;60.20
74359;DHT22;62792;46.236;6.040;2023-09-07T06:04:44;27.30;60.00
74359;DHT22;62792;46.236;6.040;2023-09-07T06:09:47;27.40;60.10
74359;DHT22;62792;46.236;6.040;2023-09-07T06:14:51;27.40;60.00
74359;DHT22;62792;46.236;6.040;2023-09-07T06:19:54;27.40;60.20
74359;DHT22;62792;46.236;6.040;2023-09-07T06:24:58;27.30;60.00
74359;DHT22;62792;46.236;6.040;2023-09-07T06:30:02;27.40;60.10
74359;DHT22;62792;46.236;6.040;2023-09-07T06:35:06;27.30;59.90
74359;DHT22;62792;46.236;6.040;2023-09-07T06:40:10;27.30;60.10
74359;DHT22;62792;46.236;6.040;2023-09-07T06:45:14;27.30;60.20
74359;DHT22;62792;46.236;6.040;2023-09-07T06:50:17;27.40;60.00
74359;DHT22;62792;46.236;6.040;2023-09-07T06:55:20;27.20;60.10
74359;DHT22;62792;46.236;6.040;2023-09-07T07:00:24;27.30;60.00
74359;DHT22;62792;46.236;6.040;2023-09-07T07:05:27;27.40;60.00
74359;DHT22;62792;46.236;6.040;2023-09-07T07:10:31;27.30;59.80
74359;DHT22;62792;46.236;6.040;2023-09-07T07:15:35;27.40;60.20
74359;DHT22;62792;46.236;6.040;2023-09-07T07:20:38;27.30;59.90
74359;DHT22;62792;46.236;6.040;2023-09-07T07:25:43;27.30;60.10
74359;DHT22;62792;46.236;6.040;2023-09-07T07:30:47;27.30;59.80
74359;DHT22;62792;46.236;6.040;2023-09-07T07:35:50;27.30;60.20
74359;DHT22;62792;46.236;6.040;2023-09-07T07:40:53;27.30;60.00
74359;DHT22;62792;46.236;6.040;2023-09-07T07:45:57;27.30;60.00
74359;DHT22;62792;46.236;6.040;2023-09-07T07:51:02;27.30;60.10
74359;DHT22;62792;46.236;6.040;2023-09-07T07:56:05;27.40;60.00
74359;DHT22;62792;46.236;6.040;2023-09-07T08:01:14;27.20;59.60
74359;DHT22;62792;46.236;6.040;2023-09-07T08:06:17;27.30;60.00
74359;DHT22;62792;46.236;6.040;2023-09-07T08:11:20;27.20;59.80
74359;DHT22;62792;46.236;6.040;2023-09-07T08:16:24;27.30;59.90
74359;DHT22;62792;46.236;6.040;2023-09-07T08:21:27;27.30;59.90
74359;DHT22;62792;46.236;6.040;2023-09-07T08:26:30;27.30;60.00
74359;DHT22;62792;46.236;6.040;2023-09-07T08:31:34;27.30;60.00
74359;DHT22;62792;46.236;6.040;2023-09-07T08:36:40;27.30;60.20
74359;DHT22;62792;46.236;6.040;2023-09-07T08:41:45;27.30;60.00
74359;DHT22;62792;46.236;6.040;2023-09-07T08:47:04;27.30;59.90
74359;DHT22;62792;46.236;6.040;2023-09-07T08:52:08;27.40;60.00
74359;DHT22;62792;46.236;6.040;2023-09-07T08:57:11;27.30;60.00
74359;DHT22;62792;46.236;6.040;2023-09-07T09:02:16;27.30;59.90
74359;DHT22;62792;46.236;6.040;2023-09-07T09:07:19;27.30;59.90
74359;DHT22;62792;46.236;6.040;2023-09-07T09:12:23;27.40;60.00
74359;DHT22;62792;46.236;6.040;2023-09-07T09:17:27;27.40;59.80
74359;DHT22;62792;46.236;6.040;2023-09-07T09:22:30;27.20;60.00
74359;DHT22;62792;46.236;6.040;2023-09-07T09:27:33;27.40;59.90
74359;DHT22;62792;46.236;6.040;2023-09-07T09:32:38;27.30;60.00
74359;DHT22;62792;46.236;6.040;2023-09-07T09:37:44;27.30;60.00
74359;DHT22;62792;46.236;6.040;2023-09-07T09:42:47;27.30;59.90
74359;DHT22;62792;46.236;6.040;2023-09-07T09:47:53;27.30;59.90
74359;DHT22;62792;46.236;6.040;2023-09-07T09:52:57;27.40;60.00
74359;DHT22;62792;46.236;6.040;2023-09-07T09:58:01;27.30;60.10
74359;DHT22;62792;46.236;6.040;2023-09-07T10:03:05;27.30;59.80
74359;DHT22;62792;46.236;6.040;2023-09-07T10:08:13;27.40;60.20
74359;DHT22;62792;46.236;6.040;2023-09-07T10:13:27;27.30;59.90
74359;DHT22;62792;46.236;6.040;2023-09-07T10:18:36;27.30;60.10
74359;DHT22;62792;46.236;6.040;2023-09-07T10:23:41;27.30;60.00
74359;DHT22;62792;46.236;6.040;2023-09-07T10:28:45;27.30;60.00
74359;DHT22;62792;46.236;6.040;2023-09-07T10:33:49;27.30;60.10
74359;DHT22;62792;46.236;6.040;2023-09-07T10:38:54;27.40;59.80
74359;DHT22;62792;46.236;6.040;2023-09-07T10:43:58;27.40;60.20
74359;DHT22;62792;46.236;6.040;2023-09-07T10:49:02;27.40;60.10
74359;DHT22;62792;46.236;6.040;2023-09-07T10:54:12;27.30;60.20
74359;DHT22;62792;46.236;6.040;2023-09-07T10:59:17;27.40;59.90
74359;DHT22;62792;46.236;6.040;2023-09-07T11:04:21;27.30;60.10
74359;DHT22;62792;46.236;6.040;2023-09-07T11:09:24;27.30;59.90
74359;DHT22;62792;46.236;6.040;2023-09-07T11:14:29;27.30;60.00
74359;DHT22;62792;46.236;6.040;2023-09-07T11:19:33;27.30;60.10
74359;DHT22;62792;46.236;6.040;2023-09-07T11:24:36;27.30;60.00
74359;DHT22;62792;46.236;6.040;2023-09-07T11:29:39;27.40;60.10
74359;DHT22;62792;46.236;6.040;2023-09-07T11:34:48;27.40;60.00
74359;DHT22;62792;46.236;6.040;2023-09-07T11:39:52;27.40;60.10
74359;DHT22;62792;46.236;6.040;2023-09-07T11:44:55;27.30;60.10
74359;DHT22;62792;46.236;6.040;2023-09-07T11:49:59;27.40;60.20
74359;DHT22;62792;46.236;6.040;2023-09-07T11:55:02;27.40;60.20
74359;DHT22;62792;46.236;6.040;2023-09-07T12:00:06;27.40;60.10
74359;DHT22;62792;46.236;6.040;2023-09-07T12:05:14;27.40;60.00
74359;DHT22;62792;46.236;6.040;2023-09-07T12:10:17;27.40;59.80
74359;DHT22;62792;46.236;6.040;2023-09-07T12:15:20;27.40;60.30
74359;DHT22;62792;46.236;6.040;2023-09-07T12:20:24;27.40;60.10
74359;DHT22;62792;46.236;6.040;2023-09-07T12:25:27;27.40;60.10
74359;DHT22;62792;46.236;6.040;2023-09-07T12:30:30;27.40;60.40
74359;DHT22;62792;46.236;6.040;2023-09-07T12:35:34;27.40;60.20
74359;DHT22;62792;46.236;6.040;2023-09-07T12:40:37;27.50;60.50
74359;DHT22;62792;46.236;6.040;2023-09-07T12:45:40;27.50;60.30
74359;DHT22;62792;46.236;6.040;2023-09-07T12:50:45;27.50;60.30
74359;DHT22;62792;46.236;6.040;2023-09-07T12:55:48;27.40;60.40
74359;DHT22;62792;46.236;6.040;2023-09-07T13:00:51;27.40;60.20
74359;DHT22;62792;46.236;6.040;2023-09-07T13:05:56;27.50;60.20
74359;DHT22;62792;46.236;6.040;2023-09-07T13:10:59;27.50;60.20
74359;DHT22;62792;46.236;6.040;2023-09-07T13:16:02;27.50;60.20
74359;DHT22;62792;46.236;6.040;2023-09-07T13:21:08;27.50;60.00
74359;DHT22;62792;46.236;6.040;2023-09-07T13:26:11;27.50;60.30
74359;DHT22;62792;46.236;6.040;2023-09-07T13:31:15;27.50;60.30
74359;DHT22;62792;46.236;6.040;2023-09-07T13:36:19;27.50;59.90
74359;DHT22;62792;46.236;6.040;2023-09-07T13:41:22;27.50;60.30
74359;DHT22;62792;46.236;6.040;2023-09-07T13:46:25;27.60;60.10
74359;DHT22;62792;46.236;6.040;2023-09-07T13:51:30;27.60;60.20
74359;DHT22;62792;46.236;6.040;2023-09-07T13:56:39;27.60;60.00
74359;DHT22;62792;46.236;6.040;2023-09-07T14:01:43;27.60;60.20
74359;DHT22;62792;46.236;6.040;2023-09-07T14:06:47;27.60;60.00
74359;DHT22;62792;46.236;6.040;2023-09-07T14:11:50;27.60;59.70
74359;DHT22;62792;46.236;6.040;2023-09-07T14:16:53;27.60;59.80
74359;DHT22;62792;46.236;6.040;2023-09-07T14:22:00;27.70;59.90
74359;DHT22;62792;46.236;6.040;2023-09-07T14:27:03;27.60;59.80
74359;DHT22;62792;46.236;6.040;2023-09-07T14:32:07;27.70;59.90
74359;DHT22;62792;46.236;6.040;2023-09-07T14:37:12;27.70;59.80
74359;DHT22;62792;46.236;6.040;2023-09-07T14:42:17;27.70;59.60
74359;DHT22;62792;46.236;6.040;2023-09-07T14:47:21;27.70;59.60
74359;DHT22;62792;46.236;6.040;2023-09-07T14:52:28;27.80;59.50
74359;DHT22;62792;46.236;6.040;2023-09-07T14:57:31;27.70;59.30
74359;DHT22;62792;46.236;6.040;2023-09-07T15:02:34;27.80;59.40
74359;DHT22;62792;46.236;6.040;2023-09-07T15:07:38;27.90;59.60
74359;DHT22;62792;46.236;6.040;2023-09-07T15:12:41;27.70;59.60
74359;DHT22;62792;46.236;6.040;2023-09-07T15:17:45;27.90;59.70
74359;DHT22;62792;46.236;6.040;2023-09-07T15:22:50;27.90;59.40
74359;DHT22;62792;46.236;6.040;2023-09-07T15:27:53;27.90;59.30
74359;DHT22;62792;46.236;6.040;2023-09-07T15:32:56;27.90;59.70
74359;DHT22;62792;46.236;6.040;2023-09-07T15:38:01;28.00;59.40
74359;DHT22;62792;46.236;6.040;2023-09-07T15:43:04;28.00;59.40
74359;DHT22;62792;46.236;6.040;2023-09-07T15:48:07;28.10;58.80
74359;DHT22;62792;46.236;6.040;2023-09-07T15:53:12;28.10;59.10
74359;DHT22;62792;46.236;6.040;2023-09-07T15:58:15;28.10;59.20
74359;DHT22;62792;46.236;6.040;2023-09-07T16:03:18;28.20;59.20
74359;DHT22;62792;46.236;6.040;2023-09-07T16:08:22;28.20;59.20
74359;DHT22;62792;46.236;6.040;2023-09-07T16:13:27;28.10;59.00
74359;DHT22;62792;46.236;6.040;2023-09-07T16:18:30;28.20;59.00
74359;DHT22;62792;46.236;6.040;2023-09-07T16:23:35;28.20;58.70
74359;DHT22;62792;46.236;6.040;2023-09-07T16:28:38;28.20;58.90
74359;DHT22;62792;46.236;6.040;2023-09-07T16:33:41;28.30;58.80
74359;DHT22;62792;46.236;6.040;2023-09-07T16:38:45;28.40;58.90
74359;DHT22;62792;46.236;6.040;2023-09-07T16:43:48;28.40;58.90
74359;DHT22;62792;46.236;6.040;2023-09-07T16:48:51;28.50;58.70
74359;DHT22;62792;46.236;6.040;2023-09-07T16:53:55;28.70;58.60
74359;DHT22;62792;46.236;6.040;2023-09-07T16:58:58;29.00;57.50
74359;DHT22;62792;46.236;6.040;2023-09-07T17:04:04;29.20;56.30
74359;DHT22;62792;46.236;6.040;2023-09-07T17:09:09;29.40;55.90
74359;DHT22;62792;46.236;6.040;2023-09-07T17:14:14;29.40;56.00
74359;DHT22;62792;46.236;6.040;2023-09-07T17:19:16;29.20;56.80
74359;DHT22;62792;46.236;6.040;2023-09-07T17:24:21;29.00;57.80
74359;DHT22;62792;46.236;6.040;2023-09-07T17:29:24;28.90;58.00
74359;DHT22;62792;46.236;6.040;2023-09-07T17:34:28;28.80;58.00
74359;DHT22;62792;46.236;6.040;2023-09-07T17:39:36;28.70;58.40
74359;DHT22;62792;46.236;6.040;2023-09-07T17:44:38;28.70;58.30
74359;DHT22;62792;46.236;6.040;2023-09-07T17:49:41;28.70;58.80
74359;DHT22;62792;46.236;6.040;2023-09-07T17:54:46;28.60;58.60
74359;DHT22;62792;46.236;6.040;2023-09-07T17:59:49;28.50;58.70
74359;DHT22;62792;46.236;6.040;2023-09-07T18:04:53;28.50;58.80
74359;DHT22;62792;46.236;6.040;2023-09-07T18:09:58;28.40;58.60
74359;DHT22;62792;46.236;6.040;2023-09-07T18:15:02;28.50;58.90
74359;DHT22;62792;46.236;6.040;2023-09-07T18:20:06;28.40;59.00
74359;DHT22;62792;46.236;6.040;2023-09-07T18:25:12;28.50;59.00
74359;DHT22;62792;46.236;6.040;2023-09-07T18:30:16;28.40;59.20
74359;DHT22;62792;46.236;6.040;2023-09-07T18:35:19;28.40;58.90
74359;DHT22;62792;46.236;6.040;2023-09-07T18:40:23;28.30;59.10
74359;DHT22;62792;46.236;6.040;2023-09-07T18:45:26;28.40;59.50
74359;DHT22;62792;46.236;6.040;2023-09-07T18:50:29;28.30;59.20
74359;DHT22;62792;46.236;6.040;2023-09-07T18:55:33;28.30;59.20
74359;DHT22;62792;46.236;6.040;2023-09-07T19:00:36;28.20;59.20
74359;DHT22;62792;46.236;6.040;2023-09-07T19:05:39;28.30;59.40
74359;DHT22;62792;46.236;6.040;2023-09-07T19:10:43;28.30;59.50
74359;DHT22;62792;46.236;6.040;2023-09-07T19:15:47;28.30;59.50
74359;DHT22;62792;46.236;6.040;2023-09-07T19:20:51;28.30;59.50
74359;DHT22;62792;46.236;6.040;2023-09-07T19:31:31;28.20;59.50
74359;DHT22;62792;46.236;6.040;2023-09-07T19:36:34;28.30;59.80
74359;DHT22;62792;46.236;6.040;2023-09-07T19:41:40;28.20;59.80
74359;DHT22;62792;46.236;6.040;2023-09-07T19:46:43;28.30;59.70
74359;DHT22;62792;46.236;6.040;2023-09-07T19:51:46;28.20;59.80
74359;DHT22;62792;46.236;6.040;2023-09-07T19:56:50;28.20;59.70
74359;DHT22;62792;46.236;6.040;2023-09-07T20:01:54;28.20;60.00
74359;DHT22;62792;46.236;6.040;2023-09-07T20:06:57;28.20;60.00
74359;DHT22;62792;46.236;6.040;2023-09-07T20:12:01;28.30;60.00
74359;DHT22;62792;46.236;6.040;2023-09-07T20:17:04;28.20;60.20
74359;DHT22;62792;46.236;6.040;2023-09-07T20:22:07;28.20;60.30
74359;DHT22;62792;46.236;6.040;2023-09-07T20:27:12;28.00;60.40
74359;DHT22;62792;46.236;6.040;2023-09-07T20:32:15;28.10;60.30
74359;DHT22;62792;46.236;6.040;2023-09-07T20:37:18;28.20;60.70
74359;DHT22;62792;46.236;6.040;2023-09-07T20:42:22;28.20;60.10
74359;DHT22;62792;46.236;6.040;2023-09-07T20:47:25;28.20;60.60
74359;DHT22;62792;46.236;6.040;2023-09-07T20:52:28;28.20;60.70
74359;DHT22;62792;46.236;6.040;2023-09-07T20:57:32;28.10;60.70
74359;DHT22;62792;46.236;6.040;2023-09-07T21:02:35;28.10;60.70
74359;DHT22;62792;46.236;6.040;2023-09-07T21:07:39;28.10;60.60
74359;DHT22;62792;46.236;6.040;2023-09-07T21:12:43;28.10;60.70
74359;DHT22;62792;46.236;6.040;2023-09-07T21:17:46;28.00;60.70
74359;DHT22;62792;46.236;6.040;2023-09-07T21:22:50;28.10;60.50
74359;DHT22;62792;46.236;6.040;2023-09-07T21:27:55;28.00;60.70
74359;DHT22;62792;46.236;6.040;2023-09-07T21:32:58;28.20;60.70
74359;DHT22;62792;46.236;6.040;2023-09-07T21:38:02;28.10;60.90
74359;DHT22;62792;46.236;6.040;2023-09-07T21:43:06;28.10;60.80
74359;DHT22;62792;46.236;6.040;2023-09-07T21:48:09;28.20;61.00
74359;DHT22;62792;46.236;6.040;2023-09-07T21:53:12;28.10;60.90
74359;DHT22;62792;46.236;6.040;2023-09-07T21:58:17;28.10;60.80
74359;DHT22;62792;46.236;6.040;2023-09-07T22:03:20;28.10;60.70
74359;DHT22;62792;46.236;6.040;2023-09-07T22:08:23;28.20;61.00
74359;DHT22;62792;46.236;6.040;2023-09-07T22:13:27;28.00;61.10
74359;DHT22;62792;46.236;6.040;2023-09-07T22:18:30;28.00;60.80
74359;DHT22;62792;46.236;6.040;2023-09-07T22:23:34;28.00;60.90
74359;DHT22;62792;46.236;6.040;2023-09-07T22:28:45;28.00;60.80
74359;DHT22;62792;46.236;6.040;2023-09-07T22:33:48;28.10;61.00
74359;DHT22;62792;46.236;6.040;2023-09-07T22:38:51;28.10;61.00
74359;DHT22;62792;46.236;6.040;2023-09-07T22:43:58;28.10;60.90
74359;DHT22;62792;46.236;6.040;2023-09-07T22:49:02;28.00;60.80
74359;DHT22;62792;46.236;6.040;2023-09-07T22:54:05;28.00;60.90
74359;DHT22;62792;46.236;6.040;2023-09-07T22:59:10;28.00;60.80
74359;DHT22;62792;46.236;6.040;2023-09-07T23:04:13;28.10;61.10
74359;DHT22;62792;46.236;6.040;2023-09-07T23:09:16;28.10;61.10
74359;DHT22;62792;46.236;6.040;2023-09-07T23:14:23;28.10;60.90
74359;DHT22;62792;46.236;6.040;2023-09-07T23:19:27;28.00;61.10
74359;DHT22;62792;46.236;6.040;2023-09-07T23:24:31;28.00;60.70
74359;DHT22;62792;46.236;6.040;2023-09-07T23:29:35;28.00;60.70
74359;DHT22;62792;46.236;6.040;2023-09-07T23:34:41;28.10;60.90
74359;DHT22;62792;46.236;6.040;2023-09-07T23:39:44;28.10;60.90
74359;DHT22;62792;46.236;6.040;2023-09-07T23:44:49;28.00;61.00
74359;DHT22;62792;46.236;6.040;2023-09-07T23:49:53;28.00;60.90
74359;DHT22;62792;46.236;6.040;2023-09-07T23:54:57;28.00;60.90
